Time;durP1;ratioP1;P1;durP2;ratioP2;P2;SDS_P1;SDS_P2;PMS_P1;PMS_P2;Temp;Humidity;BMP_temperature;BMP_pressure;BME280_temperature;BME280_humidity;BME280_pressure;Samples;Min_cycle;Max_cycle;Signal;HPM_P1;HPM_P2
2022/09/21 00:00:39;;;;;;;6.10;2.97;;;;;;;;;;6158300;23;20037;-70
2022/09/21 00:03:06;;;;;;;4.90;2.55;;;;;;;;;;6155883;23;20080;-70
2022/09/21 00:05:32;;;;;;;3.65;2.72;;;;;;;;;;6157109;23;20030;-70
2022/09/21 00:07:59;;;;;;;7.55;3.35;;;;;;;;;;6158157;23;20033;-70
2022/09/21 00:10:26;;;;;;;4.60;2.78;;;;;;;;;;6158264;23;20042;-70
2022/09/21 00:12:52;;;;;;;10.52;3.33;;;;;;;;;;6157289;23;20033;-70
2022/09/21 00:15:19;;;;;;;5.05;3.25;;;;;;;;;;6157831;23;20033;-70
2022/09/21 00:17:46;;;;;;;7.57;4.18;;;;;;;;;;6158208;23;20030;-70
2022/09/21 00:20:13;;;;;;;5.70;3.50;;;;;;;;;;6158002;23;20057;-70
2022/09/21 00:22:40;;;;;;;5.75;3.10;;;;;;;;;;6157888;23;20041;-70
2022/09/21 00:25:08;;;;;;;7.47;3.35;;;;;;;;;;6157749;23;20030;-70
2022/09/21 00:27:34;;;;;;;5.80;3.17;;;;;;;;;;6157681;23;20033;-70
2022/09/21 00:30:03;;;;;;;7.80;3.78;;;;;;;;;;6157366;23;20061;-70
2022/09/21 00:32:30;;;;;;;6.93;3.72;;;;;;;;;;6156239;23;20036;-70
2022/09/21 00:34:57;;;;;;;9.20;3.72;;;;;;;;;;6157805;23;20037;-70
2022/09/21 00:37:23;;;;;;;6.78;3.78;;;;;;;;;;6157812;23;20030;-70
2022/09/21 00:39:49;;;;;;;7.97;3.75;;;;;;;;;;6158586;23;20030;-70
2022/09/21 00:42:20;;;;;;;7.43;4.13;;;;;;;;;;6157863;23;20030;-70
2022/09/21 00:44:47;;;;;;;5.38;3.42;;;;;;;;;;6156966;23;20030;-70
2022/09/21 00:47:15;;;;;;;8.63;3.80;;;;;;;;;;6157524;23;20025;-70
2022/09/21 00:49:48;;;;;;;7.70;3.78;;;;;;;;;;6157603;23;20030;-70
2022/09/21 00:52:16;;;;;;;7.35;3.25;;;;;;;;;;6157322;23;20037;-70
2022/09/21 00:54:47;;;;;;;8.27;3.10;;;;;;;;;;6156513;23;20030;-70
2022/09/21 00:57:15;;;;;;;6.32;3.60;;;;;;;;;;6157023;23;20040;-70
2022/09/21 00:59:43;;;;;;;7.00;3.30;;;;;;;;;;6157609;23;20045;-70
2022/09/21 01:02:09;;;;;;;5.35;3.20;;;;;;;;;;6155782;23;20037;-70
2022/09/21 01:04:37;;;;;;;10.70;4.05;;;;;;;;;;6157782;23;20093;-70
2022/09/21 01:07:06;;;;;;;9.55;3.78;;;;;;;;;;6157555;23;20037;-70
2022/09/21 01:09:33;;;;;;;8.20;3.88;;;;;;;;;;6158206;23;20041;-70
2022/09/21 01:12:17;;;;;;;4.32;3.03;;;;;;;;;;6157316;23;20026;-70
2022/09/21 01:15:03;;;;;;;8.57;3.90;;;;;;;;;;6157206;23;20463;-71
2022/09/21 01:17:43;;;;;;;4.13;3.22;;;;;;;;;;6157002;23;20045;-70
2022/09/21 01:20:10;;;;;;;6.53;3.38;;;;;;;;;;6157716;23;20037;-70
2022/09/21 01:22:40;;;;;;;5.18;3.25;;;;;;;;;;6157820;23;20491;-70
2022/09/21 01:25:26;;;;;;;4.50;2.90;;;;;;;;;;6157431;23;20037;-70
2022/09/21 01:27:53;;;;;;;;;;;;;;;;;;6157874;23;20030;-70
2022/09/21 01:30:20;;;;;;;8.95;3.30;;;;;;;;;;6156078;23;47286;-70
2022/09/21 01:32:49;;;;;;;6.40;3.28;;;;;;;;;;6155786;23;20538;-69
2022/09/21 01:35:24;;;;;;;7.07;3.53;;;;;;;;;;6131509;23;20215;-70
2022/09/21 01:37:59;;;;;;;6.63;2.85;;;;;;;;;;6156782;23;20034;-70
2022/09/21 01:40:40;;;;;;;6.93;3.53;;;;;;;;;;6157749;23;20072;-70
2022/09/21 01:43:08;;;;;;;5.45;3.03;;;;;;;;;;6157278;23;20077;-70
2022/09/21 01:45:39;;;;;;;4.68;2.47;;;;;;;;;;6157442;23;20817;-70
2022/09/21 01:48:06;;;;;;;3.85;2.58;;;;;;;;;;6157304;23;20026;-70
2022/09/21 01:50:39;;;;;;;6.10;3.38;;;;;;;;;;6157710;23;20030;-70
2022/09/21 01:53:05;;;;;;;5.13;2.33;;;;;;;;;;6156947;23;20033;-70
2022/09/21 01:55:39;;;;;;;6.20;2.45;;;;;;;;;;6156600;23;20026;-70
2022/09/21 01:58:15;;;;;;;3.42;2.70;;;;;;;;;;6157817;23;20131;-70
2022/09/21 02:00:44;;;;;;;3.70;2.95;;;;;;;;;;6157501;23;20022;-70
2022/09/21 02:03:17;;;;;;;6.68;2.47;;;;;;;;;;6156584;23;20415;-70
2022/09/21 02:05:44;;;;;;;4.35;2.80;;;;;;;;;;6157927;23;20444;-70
2022/09/21 02:08:11;;;;;;;10.57;3.67;;;;;;;;;;6159074;23;20030;-70
2022/09/21 02:10:41;;;;;;;5.10;2.65;;;;;;;;;;6157311;23;20100;-70
2022/09/21 02:13:08;;;;;;;4.00;2.58;;;;;;;;;;6157739;23;20026;-70
2022/09/21 02:15:49;;;;;;;4.40;2.25;;;;;;;;;;6158394;23;20030;-70
2022/09/21 02:18:34;;;;;;;4.55;2.30;;;;;;;;;;6158218;23;20030;-70
2022/09/21 02:21:02;;;;;;;11.98;3.03;;;;;;;;;;6158203;23;20457;-70
2022/09/21 02:23:37;;;;;;;6.07;2.38;;;;;;;;;;6158380;23;20077;-70
2022/09/21 02:26:03;;;;;;;4.07;2.22;;;;;;;;;;6157620;23;20030;-70
2022/09/21 02:28:37;;;;;;;5.25;2.70;;;;;;;;;;6158193;23;20085;-70
2022/09/21 02:31:13;;;;;;;5.95;2.45;;;;;;;;;;6158657;23;20029;-70
2022/09/21 02:33:44;;;;;;;3.53;2.25;;;;;;;;;;6157069;23;20060;-70
2022/09/21 02:36:14;;;;;;;9.52;2.88;;;;;;;;;;6157568;23;20048;-70
2022/09/21 02:38:45;;;;;;;4.32;2.67;;;;;;;;;;6158088;23;20081;-70
2022/09/21 02:41:32;;;;;;;3.10;2.28;;;;;;;;;;6158416;23;20474;-70
2022/09/21 02:44:05;;;;;;;4.40;2.13;;;;;;;;;;6158316;23;20026;-71
2022/09/21 02:46:41;;;;;;;3.38;2.33;;;;;;;;;;6158078;23;20037;-70
2022/09/21 02:49:09;;;;;;;3.17;2.55;;;;;;;;;;6157892;23;20030;-70
2022/09/21 02:51:40;;;;;;;3.63;2.70;;;;;;;;;;6157788;23;20030;-70
2022/09/21 02:54:09;;;;;;;6.00;2.70;;;;;;;;;;6158362;23;20026;-70
2022/09/21 02:56:35;;;;;;;6.15;2.47;;;;;;;;;;6158221;23;20085;-70
2022/09/21 02:59:03;;;;;;;5.85;2.90;;;;;;;;;;6158148;23;20100;-70
2022/09/21 03:01:30;;;;;;;5.18;2.25;;;;;;;;;;6156469;23;20495;-70
2022/09/21 03:03:57;;;;;;;5.40;2.45;;;;;;;;;;6158353;23;20507;-70
2022/09/21 03:06:23;;;;;;;4.63;2.13;;;;;;;;;;6157677;23;20114;-70
2022/09/21 03:08:49;;;;;;;4.45;2.55;;;;;;;;;;6157516;23;20089;-70
2022/09/21 03:11:16;;;;;;;4.47;2.58;;;;;;;;;;6158426;23;20084;-70
2022/09/21 03:13:43;;;;;;;2.40;2.17;;;;;;;;;;6158780;23;20456;-70
2022/09/21 03:16:10;;;;;;;3.67;2.38;;;;;;;;;;6157701;23;20033;-70
2022/09/21 03:18:38;;;;;;;3.03;1.92;;;;;;;;;;6158377;23;20065;-70
2022/09/21 03:21:04;;;;;;;5.93;2.50;;;;;;;;;;6158309;23;20078;-70
2022/09/21 03:23:30;;;;;;;3.97;2.25;;;;;;;;;;6157984;23;20026;-70
2022/09/21 03:25:57;;;;;;;3.60;2.25;;;;;;;;;;6157239;23;20116;-70
2022/09/21 03:28:23;;;;;;;2.40;2.20;;;;;;;;;;6157958;23;20471;-70
2022/09/21 03:30:50;;;;;;;4.07;2.10;;;;;;;;;;6158134;23;20026;-70
2022/09/21 03:33:17;;;;;;;3.42;2.38;;;;;;;;;;6156972;23;20089;-70
2022/09/21 03:35:44;;;;;;;7.68;2.63;;;;;;;;;;6158218;23;20026;-70
2022/09/21 03:38:11;;;;;;;3.35;2.25;;;;;;;;;;6158559;23;20034;-70
2022/09/21 03:40:37;;;;;;;3.22;2.20;;;;;;;;;;6158182;23;20026;-70
2022/09/21 03:43:03;;;;;;;4.10;2.20;;;;;;;;;;6157772;23;20054;-70
2022/09/21 03:45:29;;;;;;;2.95;2.33;;;;;;;;;;6158098;23;20069;-70
2022/09/21 03:47:56;;;;;;;3.92;2.42;;;;;;;;;;6156803;23;20483;-70
2022/09/21 03:50:24;;;;;;;7.30;2.40;;;;;;;;;;6157625;23;20026;-70
2022/09/21 03:52:50;;;;;;;3.38;2.20;;;;;;;;;;6157741;23;20033;-70
2022/09/21 03:55:16;;;;;;;3.85;2.60;;;;;;;;;;6158272;23;20506;-70
2022/09/21 03:57:43;;;;;;;2.53;2.33;;;;;;;;;;6157837;23;20034;-70
2022/09/21 04:00:09;;;;;;;6.35;2.97;;;;;;;;;;6158128;23;20040;-70
2022/09/21 04:02:36;;;;;;;5.07;2.17;;;;;;;;;;6157910;23;20034;-70
2022/09/21 04:05:03;;;;;;;4.03;2.53;;;;;;;;;;6157968;23;20057;-70
2022/09/21 04:07:33;;;;;;;3.45;2.65;;;;;;;;;;6157463;23;20510;-70
2022/09/21 04:10:00;;;;;;;4.65;2.38;;;;;;;;;;6157528;23;20030;-70
2022/09/21 04:12:26;;;;;;;4.28;2.50;;;;;;;;;;6158117;23;20034;-70
2022/09/21 04:14:52;;;;;;;3.08;2.47;;;;;;;;;;6157901;23;20546;-70
2022/09/21 04:17:19;;;;;;;3.67;3.10;;;;;;;;;;6157953;23;20029;-70
2022/09/21 04:19:45;;;;;;;2.28;2.08;;;;;;;;;;6157220;23;20211;-70
2022/09/21 04:22:11;;;;;;;4.95;2.33;;;;;;;;;;6158233;23;20089;-70
2022/09/21 04:24:40;;;;;;;4.68;2.47;;;;;;;;;;6157761;23;20365;-71
2022/09/21 04:27:07;;;;;;;4.13;2.53;;;;;;;;;;6157613;23;20077;-70
2022/09/21 04:29:33;;;;;;;4.35;2.22;;;;;;;;;;6157992;23;20535;-70
2022/09/21 04:31:59;;;;;;;3.03;1.92;;;;;;;;;;6158189;23;20029;-70
2022/09/21 04:34:26;;;;;;;8.77;2.70;;;;;;;;;;6157231;23;20073;-69
2022/09/21 04:36:55;;;;;;;3.45;2.20;;;;;;;;;;6157846;23;20025;-70
2022/09/21 04:39:22;;;;;;;4.35;2.55;;;;;;;;;;6157351;23;20037;-70
2022/09/21 04:41:49;;;;;;;4.50;2.45;;;;;;;;;;6157901;23;20077;-70
2022/09/21 04:44:17;;;;;;;5.57;2.20;;;;;;;;;;6158154;23;20038;-70
2022/09/21 04:46:44;;;;;;;7.03;2.50;;;;;;;;;;6157914;23;20026;-70
2022/09/21 04:49:10;;;;;;;4.07;2.75;;;;;;;;;;6157183;23;20026;-70
2022/09/21 04:51:36;;;;;;;4.00;3.03;;;;;;;;;;6156566;23;20034;-70
2022/09/21 04:54:02;;;;;;;4.72;2.33;;;;;;;;;;6157542;23;20033;-70
2022/09/21 04:56:29;;;;;;;3.13;2.33;;;;;;;;;;6157651;23;20030;-70
2022/09/21 04:58:55;;;;;;;4.88;2.85;;;;;;;;;;6158067;23;20034;-70
2022/09/21 05:01:21;;;;;;;4.05;2.25;;;;;;;;;;6157692;23;20030;-70
2022/09/21 05:03:47;;;;;;;3.42;2.63;;;;;;;;;;6155461;23;20034;-70
2022/09/21 05:06:14;;;;;;;3.70;2.42;;;;;;;;;;6157572;23;20109;-70
2022/09/21 05:11:26;;;;;;;2.55;2.35;;;;;;;;;;6157718;23;20030;-70
2022/09/21 05:13:53;;;;;;;3.80;2.50;;;;;;;;;;6158068;23;20084;-70
2022/09/21 05:16:19;;;;;;;4.70;3.20;;;;;;;;;;6158061;23;20030;-70
2022/09/21 05:18:46;;;;;;;3.88;2.47;;;;;;;;;;6158478;23;20033;-70
2022/09/21 05:21:13;;;;;;;4.40;2.85;;;;;;;;;;6158093;23;20085;-70
2022/09/21 05:23:41;;;;;;;2.72;2.53;;;;;;;;;;6158196;23;20065;-70
2022/09/21 05:26:07;;;;;;;7.80;2.92;;;;;;;;;;6157783;23;20471;-70
2022/09/21 05:28:33;;;;;;;5.38;3.30;;;;;;;;;;6156596;23;20088;-70
2022/09/21 05:31:18;;;;;;;5.05;3.10;;;;;;;;;;6156956;23;20052;-70
2022/09/21 05:33:49;;;;;;;7.45;3.25;;;;;;;;;;6157199;23;20431;-70
2022/09/21 05:36:34;;;;;;;4.68;2.85;;;;;;;;;;6157837;23;20128;-70
2022/09/21 05:39:01;;;;;;;5.83;2.87;;;;;;;;;;6157084;23;20414;-70
2022/09/21 05:41:27;;;;;;;5.07;2.92;;;;;;;;;;6157403;23;20068;-70
2022/09/21 05:43:54;;;;;;;8.55;3.25;;;;;;;;;;6157085;23;20077;-70
2022/09/21 05:46:32;;;;;;;4.72;3.28;;;;;;;;;;6157707;23;20497;-70
2022/09/21 05:49:00;;;;;;;6.90;3.08;;;;;;;;;;6157068;23;20073;-70
2022/09/21 05:51:45;;;;;;;6.50;3.20;;;;;;;;;;6157110;23;20034;-70
2022/09/21 05:54:28;;;;;;;5.53;2.80;;;;;;;;;;6156358;23;20464;-70
2022/09/21 05:56:59;;;;;;;6.93;4.00;;;;;;;;;;6153893;23;20029;-69
2022/09/21 05:59:35;;;;;;;4.97;3.25;;;;;;;;;;6155181;23;20037;-71
2022/09/21 06:02:12;;;;;;;6.15;2.97;;;;;;;;;;6155638;23;20026;-70
2022/09/21 06:04:39;;;;;;;6.10;3.60;;;;;;;;;;6157999;23;20037;-69
2022/09/21 06:07:05;;;;;;;4.65;3.38;;;;;;;;;;6157641;23;20038;-69
2022/09/21 06:09:33;;;;;;;7.35;4.00;;;;;;;;;;6158162;23;20081;-69
2022/09/21 06:11:59;;;;;;;3.70;3.22;;;;;;;;;;6157661;23;20468;-69
2022/09/21 06:14:26;;;;;;;8.38;4.22;;;;;;;;;;6157768;23;20026;-69
2022/09/21 06:16:53;;;;;;;5.13;3.80;;;;;;;;;;6156369;23;20026;-69
2022/09/21 06:19:19;;;;;;;5.78;3.72;;;;;;;;;;6156948;23;20053;-69
2022/09/21 06:21:45;;;;;;;5.40;3.47;;;;;;;;;;6157120;23;20526;-68
2022/09/21 06:24:12;;;;;;;6.15;4.05;;;;;;;;;;6156124;23;20077;-69
2022/09/21 06:26:38;;;;;;;5.90;3.80;;;;;;;;;;6157861;23;20037;-70
2022/09/21 06:29:04;;;;;;;5.22;3.75;;;;;;;;;;6157090;23;20030;-70
2022/09/21 06:31:31;;;;;;;9.40;3.38;;;;;;;;;;6156897;23;20472;-70
2022/09/21 06:33:57;;;;;;;5.10;3.40;;;;;;;;;;6157394;23;20026;-70
2022/09/21 06:36:24;;;;;;;6.40;3.53;;;;;;;;;;6157195;23;20026;-70
2022/09/21 06:38:50;;;;;;;5.18;3.00;;;;;;;;;;6156701;23;20034;-69
2022/09/21 06:41:16;;;;;;;4.95;3.10;;;;;;;;;;6157243;23;20026;-70
2022/09/21 06:43:46;;;;;;;5.75;2.97;;;;;;;;;;6157231;23;20031;-70
2022/09/21 06:46:13;;;;;;;4.15;3.28;;;;;;;;;;6157868;23;20030;-70
2022/09/21 06:48:39;;;;;;;3.38;2.85;;;;;;;;;;6158757;23;20025;-70
2022/09/21 06:51:05;;;;;;;5.47;2.83;;;;;;;;;;6158389;23;20045;-70
2022/09/21 06:53:32;;;;;;;5.40;2.85;;;;;;;;;;6157916;23;20030;-69
2022/09/21 06:55:59;;;;;;;3.65;3.03;;;;;;;;;;6158684;23;20567;-69
2022/09/21 06:58:25;;;;;;;5.18;2.80;;;;;;;;;;6158903;23;20385;-69
2022/09/21 07:00:52;;;;;;;4.20;3.00;;;;;;;;;;6159318;23;20455;-70
2022/09/21 07:03:18;;;;;;;4.85;3.38;;;;;;;;;;6158831;23;20052;-69
2022/09/21 07:05:45;;;;;;;4.45;2.95;;;;;;;;;;6159184;23;20112;-69
2022/09/21 07:08:11;;;;;;;5.03;3.55;;;;;;;;;;6158646;23;20077;-69
2022/09/21 07:10:58;;;;;;;6.07;3.15;;;;;;;;;;6158685;23;20030;-69
2022/09/21 07:13:25;;;;;;;5.25;4.28;;;;;;;;;;6159911;23;20097;-70
2022/09/21 07:15:51;;;;;;;5.50;3.70;;;;;;;;;;6158703;23;20026;-70
2022/09/21 07:18:18;;;;;;;12.40;4.07;;;;;;;;;;6159536;23;20034;-70
2022/09/21 07:20:45;;;;;;;7.63;3.58;;;;;;;;;;6158946;23;20026;-70
2022/09/21 07:23:15;;;;;;;13.25;4.63;;;;;;;;;;6159809;23;20049;-70
2022/09/21 07:25:43;;;;;;;10.77;4.25;;;;;;;;;;6158606;23;20519;-70
2022/09/21 07:28:10;;;;;;;9.80;4.53;;;;;;;;;;6159052;23;20030;-70
2022/09/21 07:30:37;;;;;;;11.25;4.43;;;;;;;;;;6158670;23;20026;-70
2022/09/21 07:33:03;;;;;;;10.95;4.75;;;;;;;;;;6157240;23;20460;-70
2022/09/21 07:35:29;;;;;;;10.82;4.60;;;;;;;;;;6159543;23;20025;-71
2022/09/21 07:37:59;;;;;;;8.85;4.50;;;;;;;;;;6158925;23;20030;-70
2022/09/21 07:40:26;;;;;;;8.45;4.88;;;;;;;;;;6159147;23;20029;-70
2022/09/21 07:42:56;;;;;;;7.68;4.93;;;;;;;;;;6158786;23;20061;-70
2022/09/21 07:45:23;;;;;;;8.90;5.20;;;;;;;;;;6158250;23;20081;-70
2022/09/21 07:47:49;;;;;;;7.38;5.55;;;;;;;;;;6158379;23;20356;-70
2022/09/21 07:50:15;;;;;;;9.18;3.90;;;;;;;;;;6158885;23;20416;-69
2022/09/21 07:52:42;;;;;;;7.88;4.75;;;;;;;;;;6158981;23;20507;-70
2022/09/21 07:55:08;;;;;;;9.02;4.57;;;;;;;;;;6158864;23;20030;-70
2022/09/21 08:00:19;;;;;;;7.53;3.80;;;;;;;;;;6158667;23;20377;-69
2022/09/21 08:02:45;;;;;;;11.05;4.85;;;;;;;;;;6158900;23;20062;-70
2022/09/21 08:05:13;;;;;;;4.63;3.70;;;;;;;;;;6158731;23;20029;-70
2022/09/21 08:07:40;;;;;;;7.03;4.20;;;;;;;;;;6156984;23;20086;-70
2022/09/21 08:10:07;;;;;;;6.60;3.67;;;;;;;;;;6159048;23;20030;-69
2022/09/21 08:12:33;;;;;;;5.93;3.30;;;;;;;;;;6158815;23;20030;-70
2022/09/21 08:15:00;;;;;;;6.15;3.90;;;;;;;;;;6158219;23;20464;-69
2022/09/21 08:17:26;;;;;;;8.30;3.20;;;;;;;;;;6158441;23;20066;-69
2022/09/21 08:19:53;;;;;;;6.90;3.63;;;;;;;;;;6158853;23;20077;-69
2022/09/21 08:22:23;;;;;;;6.70;3.55;;;;;;;;;;6157944;23;20033;-69
2022/09/21 08:24:51;;;;;;;5.72;2.88;;;;;;;;;;6158919;23;20034;-70
2022/09/21 08:27:19;;;;;;;5.88;2.63;;;;;;;;;;6156605;23;20037;-70
2022/09/21 08:29:45;;;;;;;6.43;2.70;;;;;;;;;;6158254;23;20104;-70
2022/09/21 08:32:11;;;;;;;8.90;2.33;;;;;;;;;;6158608;23;20037;-72
2022/09/21 08:34:58;;;;;;;8.38;2.70;;;;;;;;;;6158212;23;20073;-71
2022/09/21 08:37:24;;;;;;;12.40;2.70;;;;;;;;;;6158299;23;20938;-72
2022/09/21 08:39:50;;;;;;;3.58;1.95;;;;;;;;;;6158713;23;20097;-73
2022/09/21 08:42:35;;;;;;;5.53;2.05;;;;;;;;;;6159264;23;20383;-72
2022/09/21 08:45:05;;;;;;;8.23;2.10;;;;;;;;;;6158240;23;20032;-72
2022/09/21 08:47:42;;;;;;;5.63;1.95;;;;;;;;;;6157518;23;20507;-73
2022/09/21 08:50:18;;;;;;;9.02;2.20;;;;;;;;;;6157368;23;20081;-71
2022/09/21 08:52:44;;;;;;;;;;;;;;;;;;6159187;23;20435;-71
2022/09/21 08:55:16;;;;;;;7.25;1.58;;;;;;;;;;6157544;23;44845;-73
2022/09/21 08:57:43;;;;;;;6.53;1.92;;;;;;;;;;6158399;23;20081;-73
2022/09/21 09:00:13;;;;;;;5.38;1.80;;;;;;;;;;6158239;23;20030;-73
2022/09/21 09:02:51;;;;;;;5.97;1.83;;;;;;;;;;6157176;23;20530;-74
2022/09/21 09:05:19;;;;;;;3.53;1.73;;;;;;;;;;6159626;23;20061;-74
2022/09/21 09:07:48;;;;;;;5.68;2.10;;;;;;;;;;6159031;23;20427;-74
2022/09/21 09:10:14;;;;;;;3.33;1.55;;;;;;;;;;6159090;23;20122;-73
2022/09/21 09:12:40;;;;;;;3.78;1.40;;;;;;;;;;6158526;23;20034;-74
2022/09/21 09:15:18;;;;;;;2.85;1.25;;;;;;;;;;6157789;23;20081;-71
2022/09/21 09:18:06;;;;;;;4.30;1.90;;;;;;;;;;6158096;23;20974;-72
2022/09/21 09:20:38;;;;;;;6.07;1.17;;;;;;;;;;6157730;23;20029;-72
2022/09/21 09:23:25;;;;;;;6.10;1.63;;;;;;;;;;6158038;23;20034;-72
2022/09/21 09:25:55;;;;;;;5.28;1.50;;;;;;;;;;6159102;23;20887;-74
2022/09/21 09:28:25;;;;;;;7.75;2.05;;;;;;;;;;6158442;23;20113;-72
2022/09/21 09:30:58;;;;;;;3.22;1.20;;;;;;;;;;6157719;23;20088;-73
2022/09/21 09:33:28;;;;;;;10.60;1.60;;;;;;;;;;6156764;23;20026;-72
2022/09/21 09:36:05;;;;;;;4.03;1.85;;;;;;;;;;6158241;23;20062;-72
2022/09/21 09:38:31;;;;;;;2.80;1.38;;;;;;;;;;6158219;23;20073;-74
2022/09/21 09:40:57;;;;;;;7.70;1.25;;;;;;;;;;6157564;23;20053;-72
2022/09/21 09:43:29;;;;;;;7.78;1.42;;;;;;;;;;6158154;23;20461;-71
2022/09/21 09:46:28;;;;;;;2.67;1.20;;;;;;;;;;6158383;23;20498;-72
2022/09/21 09:49:09;;;;;;;3.67;1.13;;;;;;;;;;6140991;23;20077;-72
2022/09/21 09:51:37;;;;;;;2.75;0.98;;;;;;;;;;6158349;23;20101;-72
2022/09/21 09:54:03;;;;;;;5.10;1.40;;;;;;;;;;6158162;23;20034;-71
2022/09/21 09:56:35;;;;;;;7.53;1.33;;;;;;;;;;6157516;23;20088;-71
2022/09/21 09:59:07;;;;;;;2.20;1.00;;;;;;;;;;6157643;23;20089;-73
2022/09/21 10:01:40;;;;;;;2.95;1.05;;;;;;;;;;6157471;23;20097;-72
2022/09/21 10:04:11;;;;;;;5.57;1.48;;;;;;;;;;6157317;23;20033;-73
2022/09/21 10:06:37;;;;;;;4.13;1.10;;;;;;;;;;6157496;23;20030;-72
2022/09/21 10:09:30;;;;;;;2.65;1.00;;;;;;;;;;6157360;23;20030;-72
2022/09/21 10:12:22;;;;;;;3.38;0.93;;;;;;;;;;6158020;23;20140;-71
2022/09/21 10:14:50;;;;;;;3.72;1.33;;;;;;;;;;6157106;23;20037;-70
2022/09/21 10:17:17;;;;;;;3.10;1.05;;;;;;;;;;6157678;23;20105;-71
2022/09/21 10:19:44;;;;;;;3.70;1.40;;;;;;;;;;6159130;23;20026;-71
2022/09/21 10:22:18;;;;;;;6.15;1.35;;;;;;;;;;6158950;23;20026;-70
2022/09/21 10:24:48;;;;;;;3.20;0.85;;;;;;;;;;6158625;23;20097;-70
2022/09/21 10:27:15;;;;;;;4.03;1.10;;;;;;;;;;6158735;23;20034;-70
2022/09/21 10:29:43;;;;;;;2.10;1.02;;;;;;;;;;6158816;23;20341;-71
2022/09/21 10:32:12;;;;;;;2.22;1.17;;;;;;;;;;6157334;23;20022;-70
2022/09/21 10:34:43;;;;;;;6.82;1.13;;;;;;;;;;6159199;23;20463;-71
2022/09/21 10:37:24;;;;;;;2.72;1.48;;;;;;;;;;6159198;23;20081;-70
2022/09/21 10:39:50;;;;;;;5.32;1.05;;;;;;;;;;6158908;23;20026;-71
2022/09/21 10:42:17;;;;;;;3.20;1.33;;;;;;;;;;6158735;23;20061;-69
2022/09/21 10:44:44;;;;;;;4.28;1.05;;;;;;;;;;6158981;23;20030;-70
2022/09/21 10:47:29;;;;;;;6.80;1.65;;;;;;;;;;6158824;23;20026;-69
2022/09/21 10:49:57;;;;;;;2.10;1.02;;;;;;;;;;6158210;23;20033;-70
2022/09/21 10:52:33;;;;;;;3.00;0.98;;;;;;;;;;6158468;23;20038;-70
2022/09/21 10:54:59;;;;;;;3.22;0.95;;;;;;;;;;6158544;23;20490;-72
2022/09/21 10:57:26;;;;;;;4.43;1.05;;;;;;;;;;6158717;23;20029;-73
2022/09/21 10:59:53;;;;;;;3.95;1.20;;;;;;;;;;6158268;23;20027;-74
2022/09/21 11:02:24;;;;;;;5.40;0.95;;;;;;;;;;6159558;23;20033;-74
2022/09/21 11:04:52;;;;;;;5.65;1.27;;;;;;;;;;6158192;23;20034;-71
2022/09/21 11:07:40;;;;;;;3.25;0.82;;;;;;;;;;6158882;23;20030;-71
2022/09/21 11:10:41;;;;;;;4.68;2.17;;;;;;;;;;6158435;23;20030;-71
2022/09/21 11:13:14;;;;;;;2.30;0.90;;;;;;;;;;6067334;23;20027;-70
2022/09/21 11:15:45;;;;;;;1.73;0.90;;;;;;;;;;6143148;23;20018;-71
2022/09/21 11:18:19;;;;;;;2.25;1.40;;;;;;;;;;6159247;23;20034;-71
2022/09/21 11:20:47;;;;;;;3.30;0.90;;;;;;;;;;6159637;23;20486;-72
2022/09/21 11:23:32;;;;;;;4.53;1.58;;;;;;;;;;6159059;23;20041;-72
2022/09/21 11:26:12;;;;;;;1.50;0.80;;;;;;;;;;6159040;23;20393;-72
2022/09/21 11:28:45;;;;;;;0.90;0.70;;;;;;;;;;6158688;23;20073;-72
2022/09/21 11:31:29;;;;;;;3.85;0.70;;;;;;;;;;6158602;23;20041;-73
2022/09/21 11:34:15;;;;;;;4.55;1.40;;;;;;;;;;6157329;23;20353;-73
2022/09/21 11:36:44;;;;;;;4.70;0.50;;;;;;;;;;6159446;23;20101;-74
2022/09/21 11:39:17;;;;;;;5.18;0.80;;;;;;;;;;6158267;23;20097;-73
2022/09/21 11:41:43;;;;;;;1.45;0.60;;;;;;;;;;6159083;23;20392;-71
2022/09/21 11:44:28;;;;;;;4.85;0.80;;;;;;;;;;6158919;23;20030;-73
2022/09/21 11:47:06;;;;;;;6.20;0.95;;;;;;;;;;6158187;23;20029;-70
2022/09/21 11:49:51;;;;;;;5.40;1.27;;;;;;;;;;6158852;23;20030;-71
2022/09/21 11:52:44;;;;;;;1.70;0.60;;;;;;;;;;6155694;23;20057;-71
2022/09/21 11:55:13;;;;;;;5.82;0.90;;;;;;;;;;6158789;23;20030;-72
2022/09/21 11:57:40;;;;;;;2.85;0.63;;;;;;;;;;6157775;23;20033;-72
2022/09/21 12:00:14;;;;;;;3.40;0.73;;;;;;;;;;6158615;23;20340;-72
2022/09/21 12:02:51;;;;;;;0.70;0.60;;;;;;;;;;6157253;23;20030;-71
2022/09/21 12:05:36;;;;;;;3.22;0.73;;;;;;;;;;6159437;23;20097;-72
2022/09/21 12:08:09;;;;;;;4.27;1.00;;;;;;;;;;6158206;23;20026;-71
2022/09/21 12:10:35;;;;;;;3.22;0.55;;;;;;;;;;6158956;23;20025;-71
2022/09/21 12:13:01;;;;;;;1.58;0.50;;;;;;;;;;6156443;23;20030;-71
2022/09/21 12:15:33;;;;;;;1.08;0.65;;;;;;;;;;6157857;23;20081;-69
2022/09/21 12:18:13;;;;;;;2.90;0.80;;;;;;;;;;6157655;23;20030;-72
2022/09/21 12:20:44;;;;;;;1.73;0.60;;;;;;;;;;6156782;23;20113;-72
2022/09/21 12:23:16;;;;;;;1.58;1.05;;;;;;;;;;6158017;23;20026;-73
2022/09/21 12:25:45;;;;;;;2.33;0.70;;;;;;;;;;6158841;23;20468;-70
2022/09/21 12:28:12;;;;;;;2.00;0.68;;;;;;;;;;6159020;23;20494;-72
2022/09/21 12:30:40;;;;;;;6.13;0.90;;;;;;;;;;6158725;23;20097;-71
2022/09/21 12:33:20;;;;;;;2.58;0.85;;;;;;;;;;6156895;23;20034;-72
2022/09/21 12:35:50;;;;;;;3.20;0.60;;;;;;;;;;6158028;23;20096;-72
2022/09/21 12:38:23;;;;;;;3.63;1.15;;;;;;;;;;6157928;23;20030;-70
2022/09/21 12:40:52;;;;;;;1.75;0.70;;;;;;;;;;6157712;23;20033;-70
2022/09/21 12:43:34;;;;;;;3.35;1.02;;;;;;;;;;6158734;23;20834;-71
2022/09/21 12:46:03;;;;;;;4.72;0.65;;;;;;;;;;6157706;23;20494;-71
2022/09/21 12:48:38;;;;;;;2.08;0.60;;;;;;;;;;6156668;23;20459;-71
2022/09/21 12:51:05;;;;;;;2.20;0.52;;;;;;;;;;6159385;23;20033;-71
2022/09/21 12:53:33;;;;;;;2.53;0.75;;;;;;;;;;6158107;23;20032;-71
2022/09/21 12:56:06;;;;;;;2.63;0.85;;;;;;;;;;6158550;23;20077;-71
2022/09/21 12:58:41;;;;;;;2.67;0.90;;;;;;;;;;6158709;23;20113;-72
2022/09/21 13:01:07;;;;;;;3.47;0.75;;;;;;;;;;6158290;23;20040;-72
2022/09/21 13:03:39;;;;;;;4.53;0.80;;;;;;;;;;6156948;23;20085;-72
2022/09/21 13:06:18;;;;;;;2.47;0.70;;;;;;;;;;6158318;23;20554;-71
2022/09/21 13:08:45;;;;;;;3.60;0.77;;;;;;;;;;6156109;23;20089;-71
2022/09/21 13:11:19;;;;;;;2.80;0.70;;;;;;;;;;6158500;23;20084;-71
2022/09/21 13:13:52;;;;;;;3.00;0.60;;;;;;;;;;6158080;23;20088;-70
2022/09/21 13:16:32;;;;;;;2.30;0.80;;;;;;;;;;6158140;23;20029;-70
2022/09/21 13:18:59;;;;;;;3.58;0.90;;;;;;;;;;6157979;23;20026;-71
2022/09/21 13:21:31;;;;;;;1.48;0.95;;;;;;;;;;6158351;23;20030;-71
2022/09/21 13:24:01;;;;;;;3.58;0.93;;;;;;;;;;6158535;23;20034;-70
2022/09/21 13:26:31;;;;;;;2.83;0.88;;;;;;;;;;6157977;23;20030;-69
2022/09/21 13:28:57;;;;;;;1.65;0.70;;;;;;;;;;6155543;23;20089;-69
2022/09/21 13:31:29;;;;;;;3.10;0.85;;;;;;;;;;6158530;23;20934;-71
2022/09/21 13:34:07;;;;;;;5.20;1.27;;;;;;;;;;6156866;23;20026;-71
2022/09/21 13:36:34;;;;;;;4.78;1.13;;;;;;;;;;6158941;23;20081;-72
2022/09/21 13:39:07;;;;;;;2.60;0.95;;;;;;;;;;6158900;23;20034;-71
2022/09/21 13:41:34;;;;;;;2.35;0.73;;;;;;;;;;6158570;23;20034;-70
2022/09/21 13:44:35;;;;;;;1.23;0.90;;;;;;;;;;6157390;23;20073;-71
2022/09/21 13:47:02;;;;;;;4.28;1.00;;;;;;;;;;6158407;23;20041;-70
2022/09/21 13:50:03;;;;;;;6.00;1.30;;;;;;;;;;6157663;23;20037;-71
2022/09/21 13:52:32;;;;;;;2.70;1.00;;;;;;;;;;6111265;23;20085;-71
2022/09/21 13:55:00;;;;;;;2.38;0.98;;;;;;;;;;6159093;23;20970;-70
2022/09/21 13:57:45;;;;;;;4.70;0.80;;;;;;;;;;6159787;23;20034;-70
2022/09/21 14:00:11;;;;;;;5.47;0.90;;;;;;;;;;6159137;23;20062;-71
2022/09/21 14:02:39;;;;;;;3.65;0.90;;;;;;;;;;6158825;23;20052;-70
2022/09/21 14:05:18;;;;;;;7.20;1.00;;;;;;;;;;6158969;23;20400;-71
2022/09/21 14:07:52;;;;;;;2.35;0.73;;;;;;;;;;6158621;23;20084;-71
2022/09/21 14:10:20;;;;;;;5.07;1.10;;;;;;;;;;6158881;23;20062;-70
2022/09/21 14:12:47;;;;;;;3.50;0.93;;;;;;;;;;6159370;23;20030;-70
2022/09/21 14:15:17;;;;;;;5.40;0.68;;;;;;;;;;6158530;23;20105;-71
2022/09/21 14:17:44;;;;;;;3.85;0.77;;;;;;;;;;6159004;23;20093;-68
2022/09/21 14:20:29;;;;;;;3.05;0.70;;;;;;;;;;6158333;23;20025;-66
2022/09/21 14:23:10;;;;;;;2.60;1.08;;;;;;;;;;6158520;23;20041;-67
2022/09/21 14:25:52;;;;;;;4.65;0.90;;;;;;;;;;6157371;23;20030;-69
2022/09/21 14:28:24;;;;;;;4.72;1.02;;;;;;;;;;6156468;23;20557;-68
2022/09/21 14:30:57;;;;;;;3.80;0.80;;;;;;;;;;6155488;23;20465;-69
2022/09/21 14:33:42;;;;;;;2.70;0.88;;;;;;;;;;6156141;23;20025;-68
2022/09/21 14:36:13;;;;;;;3.53;0.85;;;;;;;;;;6156565;23;20033;-70
2022/09/21 14:38:48;;;;;;;9.00;1.77;;;;;;;;;;6154939;23;20029;-70
2022/09/21 14:41:21;;;;;;;4.85;1.17;;;;;;;;;;6155088;23;20049;-69
2022/09/21 14:43:50;;;;;;;3.67;0.88;;;;;;;;;;6158280;23;20030;-70
2022/09/21 14:46:58;;;;;;;1.42;0.90;;;;;;;;;;6158366;23;20033;-71
2022/09/21 14:49:39;;;;;;;5.30;1.98;;;;;;;;;;6066878;23;20027;-70
2022/09/21 14:52:10;;;;;;;3.45;0.82;;;;;;;;;;6043303;23;20087;-71
2022/09/21 14:55:08;;;;;;;3.28;1.00;;;;;;;;;;6131750;23;20036;-70
2022/09/21 14:57:54;;;;;;;3.27;1.10;;;;;;;;;;6159495;23;20030;-70
2022/09/21 15:00:25;;;;;;;;;;;;;;;;;;6158731;23;20229;-69
2022/09/21 15:03:10;;;;;;;1.67;0.70;;;;;;;;;;6155941;23;43823;-70
2022/09/21 15:05:39;;;;;;;5.40;1.00;;;;;;;;;;6158931;23;20030;-70
2022/09/21 15:11:11;;;;;;;6.65;1.48;;;;;;;;;;6158255;23;20085;-69
2022/09/21 15:13:41;;;;;;;1.67;0.60;;;;;;;;;;6154640;23;20066;-69